createdAt,value
2022-11-30T00:00:31.853Z,101145.52
2022-11-30T00:05:53.288Z,101148.98
2022-11-30T00:10:56.580Z,101148.55
2022-11-30T00:16:03.796Z,101151.86
2022-11-30T00:21:11.500Z,101153.80
2022-11-30T00:26:18.411Z,101155.22
2022-11-30T00:31:22.000Z,101158.34
2022-11-30T00:36:25.416Z,101165.89
2022-11-30T00:41:28.807Z,101165.57
2022-11-30T00:46:32.238Z,101168.48
2022-11-30T00:51:35.516Z,101167.69
2022-11-30T00:56:38.911Z,101165.96
2022-11-30T01:01:42.191Z,101169.77
2022-11-30T01:06:45.587Z,101171.19
2022-11-30T01:11:49.013Z,101178.23
2022-11-30T01:16:56.211Z,101172.65
2022-11-30T01:22:00.222Z,101171.55
2022-11-30T01:27:03.665Z,101174.32
2022-11-30T01:32:07.180Z,101176.70
2022-11-30T01:37:10.397Z,101182.16
2022-11-30T01:42:16.357Z,101186.94
2022-11-30T01:47:23.089Z,101189.63
2022-11-30T01:52:34.907Z,101193.41
2022-11-30T01:58:04.677Z,101197.67
2022-11-30T02:03:17.903Z,101201.99
2022-11-30T02:08:21.674Z,101203.09
2022-11-30T02:13:31.505Z,101203.04
2022-11-30T02:18:48.494Z,101205.55
2022-11-30T02:24:13.164Z,101203.29
2022-11-30T02:29:28.022Z,101197.40
2022-11-30T02:34:32.594Z,101193.43
2022-11-30T02:39:36.242Z,101193.45
2022-11-30T02:44:41.671Z,101196.91
2022-11-30T02:49:59.755Z,101200.48
2022-11-30T02:55:06.619Z,101204.83
2022-11-30T03:00:11.790Z,101209.67
2022-11-30T03:05:15.132Z,101206.38
2022-11-30T03:10:18.528Z,101211.90
2022-11-30T03:15:21.827Z,101221.58
2022-11-30T03:20:25.818Z,101220.55
2022-11-30T03:25:30.231Z,101230.09
2022-11-30T03:30:34.068Z,101230.95
2022-11-30T03:35:37.949Z,101240.16
2022-11-30T03:40:41.259Z,101243.66
2022-11-30T03:45:45.995Z,101248.20
2022-11-30T03:50:50.462Z,101253.54
2022-11-30T03:55:59.387Z,101254.71
2022-11-30T04:01:14.614Z,101250.95
2022-11-30T04:06:18.101Z,101253.99
2022-11-30T04:11:21.241Z,101261.49
2022-11-30T04:16:24.593Z,101268.29
2022-11-30T04:21:27.946Z,101272.02
2022-11-30T04:26:31.294Z,101277.09
2022-11-30T04:31:34.777Z,101276.59
2022-11-30T04:36:38.036Z,101280.86
2022-11-30T04:41:41.545Z,101277.66
2022-11-30T04:46:44.919Z,101274.57
2022-11-30T04:51:48.167Z,101279.52
2022-11-30T04:56:56.257Z,101280.18
2022-11-30T05:02:12.580Z,101279.34
2022-11-30T05:07:20.779Z,101282.20
2022-11-30T05:12:24.868Z,101285.96
2022-11-30T05:17:28.281Z,101286.83
2022-11-30T05:22:31.582Z,101286.66
2022-11-30T05:27:35.565Z,101289.56
2022-11-30T05:32:38.981Z,101293.30
2022-11-30T05:37:42.257Z,101301.36
2022-11-30T05:42:45.614Z,101304.98
2022-11-30T05:47:48.987Z,101309.59
2022-11-30T05:53:01.076Z,101307.57
2022-11-30T05:58:04.535Z,101308.64
2022-11-30T06:03:08.046Z,101310.94
2022-11-30T06:08:11.653Z,101309.16
2022-11-30T06:13:15.192Z,101306.92
2022-11-30T06:18:18.656Z,101313.58
2022-11-30T06:23:22.096Z,101318.05
2022-11-30T06:28:25.425Z,101320.94
2022-11-30T06:33:28.978Z,101324.31
2022-11-30T06:38:32.274Z,101329.34
2022-11-30T06:43:37.182Z,101338.63
2022-11-30T06:48:40.967Z,101344.52
2022-11-30T06:53:45.207Z,101345.11
2022-11-30T06:58:48.791Z,101345.69
2022-11-30T07:03:51.976Z,101347.96
2022-11-30T07:08:56.192Z,101349.15
2022-11-30T07:13:59.556Z,101352.02
2022-11-30T07:19:02.918Z,101358.09
2022-11-30T07:24:24.838Z,101360.20
2022-11-30T07:29:28.264Z,101360.48
2022-11-30T07:34:31.804Z,101366.27
2022-11-30T07:39:35.158Z,101371.19
2022-11-30T07:44:38.618Z,101380.33
2022-11-30T07:49:41.860Z,101380.49
2022-11-30T07:54:45.378Z,101383.80
2022-11-30T07:59:49.417Z,101383.89
2022-11-30T08:04:53.646Z,101384.20
2022-11-30T08:09:58.600Z,101382.19
2022-11-30T08:20:26.340Z,101385.20
2022-11-30T08:25:29.595Z,101387.50
2022-11-30T08:30:33.077Z,101390.98
2022-11-30T08:35:36.676Z,101385.27
2022-11-30T08:40:40.042Z,101384.64
2022-11-30T08:45:43.425Z,101390.05
2022-11-30T08:50:46.807Z,101393.73
2022-11-30T08:56:00.754Z,101388.63
2022-11-30T09:01:50.824Z,101398.10
2022-11-30T09:07:00.082Z,101403.98
2022-11-30T09:12:07.622Z,101403.98
2022-11-30T09:17:11.519Z,101404.10
2022-11-30T09:22:17.045Z,101403.89
2022-11-30T09:27:22.699Z,101404.39
2022-11-30T09:32:26.537Z,101402.98
2022-11-30T09:37:29.726Z,101403.40
2022-11-30T09:42:44.983Z,101402.35
2022-11-30T09:47:59.270Z,101406.58
2022-11-30T09:53:12.638Z,101411.08
2022-11-30T09:58:39.855Z,101415.98
2022-11-30T10:03:43.531Z,101416.66
2022-11-30T10:09:07.594Z,101423.30
2022-11-30T10:14:26.983Z,101415.90
2022-11-30T10:19:45.842Z,101415.83
2022-11-30T10:24:57.603Z,101414.56
2022-11-30T10:30:01.871Z,101404.81
2022-11-30T10:35:33.968Z,101408.04
2022-11-30T10:40:51.879Z,101408.25
2022-11-30T10:45:55.279Z,101404.27
2022-11-30T10:50:59.278Z,101404.26
2022-11-30T10:56:14.418Z,101405.98
2022-11-30T11:01:37.337Z,101409.11
2022-11-30T11:06:50.501Z,101418.50
2022-11-30T11:11:55.411Z,101418.25
2022-11-30T11:17:18.424Z,101416.27
2022-11-30T11:22:24.962Z,101418.70
2022-11-30T11:27:31.902Z,101415.16
2022-11-30T11:32:36.198Z,101414.55
2022-11-30T11:37:41.891Z,101409.23
2022-11-30T11:42:48.234Z,101411.50
2022-11-30T11:48:04.603Z,101408.49
2022-11-30T11:53:15.730Z,101406.93
2022-11-30T11:58:25.566Z,101401.52
2022-11-30T12:03:48.389Z,101401.30
2022-11-30T12:09:19.048Z,101405.23
2022-11-30T12:14:22.427Z,101410.32
2022-11-30T12:19:52.796Z,101412.83
2022-11-30T12:25:06.246Z,101417.41
2022-11-30T12:30:25.412Z,101419.02
2022-11-30T12:35:46.845Z,101423.57
2022-11-30T12:41:16.119Z,101424.31
2022-11-30T12:46:56.993Z,101423.47
2022-11-30T12:52:41.425Z,101417.71
2022-11-30T12:58:00.110Z,101419.23
2022-11-30T13:03:24.855Z,101422.26
2022-11-30T13:09:04.882Z,101423.00
2022-11-30T13:14:15.734Z,101420.48
2022-11-30T13:19:44.278Z,101420.86
2022-11-30T13:24:59.663Z,101419.81
2022-11-30T13:30:33.082Z,101416.64
2022-11-30T13:35:53.093Z,101417.11
2022-11-30T13:41:04.650Z,101413.92
2022-11-30T13:46:15.567Z,101414.84
2022-11-30T13:51:38.133Z,101416.30
2022-11-30T13:56:49.822Z,101423.70
2022-11-30T14:02:32.217Z,101425.41
2022-11-30T14:07:47.341Z,101428.95
2022-11-30T14:13:26.242Z,101429.77
2022-11-30T14:18:48.171Z,101435.18
2022-11-30T14:24:06.120Z,101434.04
2022-11-30T14:29:14.186Z,101435.89
2022-11-30T14:34:39.125Z,101433.05
2022-11-30T14:39:52.377Z,101432.38
2022-11-30T14:45:07.812Z,101433.84
2022-11-30T14:50:23.488Z,101438.14
2022-11-30T14:55:41.014Z,101439.15
2022-11-30T15:00:45.787Z,101437.58
2022-11-30T15:05:56.995Z,101442.02
2022-11-30T15:11:05.967Z,101448.05
2022-11-30T15:16:22.134Z,101444.63
2022-11-30T15:21:29.811Z,101447.55
2022-11-30T15:27:07.110Z,101449.59
2022-11-30T15:32:27.121Z,101446.56
2022-11-30T15:37:40.181Z,101447.20
2022-11-30T15:42:49.834Z,101451.63
2022-11-30T15:47:57.121Z,101447.17
2022-11-30T15:53:06.134Z,101452.98
2022-11-30T16:04:16.307Z,101456.85
2022-11-30T16:09:36.605Z,101458.98
2022-11-30T16:14:44.162Z,101455.66
2022-11-30T16:19:57.267Z,101459.70
2022-11-30T16:25:05.853Z,101461.89
2022-11-30T16:30:24.681Z,101464.92
2022-11-30T16:36:05.472Z,101463.88
2022-11-30T16:41:28.545Z,101469.47
2022-11-30T16:46:32.898Z,101475.09
2022-11-30T16:51:51.599Z,101472.14
2022-11-30T16:57:00.069Z,101475.52
2022-11-30T17:02:19.403Z,101482.69
2022-11-30T17:07:55.777Z,101489.11
2022-11-30T17:13:05.214Z,101488.73
2022-11-30T17:18:18.864Z,101492.60
2022-11-30T17:23:28.665Z,101495.26
2022-11-30T17:28:33.256Z,101494.39
2022-11-30T17:33:51.404Z,101496.19
2022-11-30T17:38:59.697Z,101499.42
2022-11-30T17:44:08.292Z,101504.19
2022-11-30T17:49:14.135Z,101505.85
2022-11-30T17:54:26.406Z,101502.92
2022-11-30T17:59:36.657Z,101504.36
2022-11-30T18:04:54.207Z,101510.23
2022-11-30T18:10:02.135Z,101512.65
2022-11-30T18:15:06.541Z,101513.01
2022-11-30T18:20:14.531Z,101516.01
2022-11-30T18:25:18.964Z,101521.36
2022-11-30T18:30:22.396Z,101522.08
2022-11-30T18:35:26.002Z,101523.61
2022-11-30T18:40:29.683Z,101528.40
2022-11-30T18:45:36.803Z,101526.14
2022-11-30T18:50:48.544Z,101527.21
2022-11-30T18:55:56.462Z,101531.85
2022-11-30T19:01:24.194Z,101537.17
2022-11-30T19:06:30.199Z,101540.30
2022-11-30T19:11:34.185Z,101544.96
2022-11-30T19:16:49.653Z,101545.48
2022-11-30T19:22:14.000Z,101549.61
2022-11-30T19:28:04.589Z,101551.64
2022-11-30T19:33:10.083Z,101552.28
2022-11-30T19:38:19.790Z,101549.54
2022-11-30T19:43:39.140Z,101553.65
2022-11-30T19:49:04.351Z,101553.16
2022-11-30T19:54:08.026Z,101556.27
2022-11-30T19:59:13.245Z,101561.45
2022-11-30T20:04:16.812Z,101563.20
2022-11-30T20:09:22.314Z,101561.21
2022-11-30T20:14:25.735Z,101560.09
2022-11-30T20:19:32.747Z,101556.54
2022-11-30T20:24:37.091Z,101556.45
2022-11-30T20:29:41.346Z,101554.48
2022-11-30T20:34:45.203Z,101554.35
2022-11-30T20:39:49.065Z,101553.13
2022-11-30T20:44:58.416Z,101554.61
2022-11-30T20:50:23.813Z,101556.70
2022-11-30T20:55:50.501Z,101562.85
2022-11-30T21:01:23.952Z,101562.46
2022-11-30T21:06:31.497Z,101567.77
2022-11-30T21:18:14.347Z,101576.75
2022-11-30T21:23:50.767Z,101575.48
2022-11-30T21:29:35.876Z,101581.02
2022-11-30T21:35:28.710Z,101578.23
2022-11-30T21:40:37.004Z,101575.35
2022-11-30T21:46:18.408Z,101574.52
2022-11-30T21:51:31.226Z,101570.77
2022-11-30T21:57:04.393Z,101579.08
2022-11-30T22:02:40.840Z,101578.38
2022-11-30T22:08:00.689Z,101577.70
2022-11-30T22:13:50.843Z,101575.18
2022-11-30T22:19:13.630Z,101580.69
2022-11-30T22:24:36.315Z,101576.73
2022-11-30T22:29:56.448Z,101575.66
2022-11-30T22:35:17.751Z,101574.74
2022-11-30T22:40:55.001Z,101575.75
2022-11-30T22:46:38.665Z,101576.25
2022-11-30T22:52:03.511Z,101579.70
2022-11-30T22:57:37.008Z,101570.92
2022-11-30T23:02:52.030Z,101568.08
2022-11-30T23:08:04.291Z,101566.38
2022-11-30T23:13:15.564Z,101565.33
2022-11-30T23:18:21.591Z,101562.83
2022-11-30T23:23:25.715Z,101561.02
2022-11-30T23:28:29.087Z,101561.58
2022-11-30T23:33:33.320Z,101561.23
2022-11-30T23:38:43.707Z,101555.73
2022-11-30T23:43:48.038Z,101555.23
2022-11-30T23:48:56.431Z,101554.77
2022-11-30T23:54:06.952Z,101553.31
2022-11-30T23:59:17.561Z,101545.84
